createdAt,value
2019-05-02T00:00:31.345Z,11.63
2019-05-02T00:01:44.624Z,14.13
2019-05-02T00:04:22.189Z,14.33
2019-05-02T00:05:32.002Z,14.13
2019-05-02T00:06:30.317Z,14.47
2019-05-02T00:07:34.509Z,14.28
2019-05-02T00:08:41.806Z,13.38
2019-05-02T00:09:48.405Z,13.15
2019-05-02T00:10:52.559Z,12.73
2019-05-02T00:11:58.847Z,13.30
2019-05-02T00:13:03.254Z,14.23
2019-05-02T00:14:09.052Z,15.08
2019-05-02T00:15:16.029Z,15.10
2019-05-02T00:16:20.270Z,13.93
2019-05-02T00:17:25.597Z,13.35
2019-05-02T00:18:36.692Z,13.40
2019-05-02T00:19:38.851Z,14.40
2019-05-02T00:20:42.918Z,13.15
2019-05-02T00:21:47.011Z,15.15
2019-05-02T00:22:52.304Z,14.55
2019-05-02T00:23:59.248Z,14.60
2019-05-02T00:25:04.209Z,14.93
2019-05-02T00:26:08.334Z,14.13
2019-05-02T00:27:14.130Z,14.13
2019-05-02T00:28:18.273Z,14.75
2019-05-02T00:29:23.720Z,15.08
2019-05-02T00:30:30.062Z,14.58
2019-05-02T00:31:33.991Z,14.13
2019-05-02T00:32:39.320Z,14.53
2019-05-02T00:33:43.411Z,15.13
2019-05-02T00:34:47.626Z,14.23
2019-05-02T00:35:51.854Z,14.73
2019-05-02T00:36:55.933Z,14.30
2019-05-02T00:38:02.373Z,16.10
2019-05-02T00:39:13.671Z,15.20
2019-05-02T00:40:14.998Z,15.80
2019-05-02T00:41:19.056Z,13.83
2019-05-02T00:42:24.118Z,15.15
2019-05-02T00:43:34.516Z,15.70
2019-05-02T00:44:37.113Z,14.90
2019-05-02T00:45:41.274Z,14.87
2019-05-02T00:46:45.351Z,14.73
2019-05-02T00:48:08.183Z,14.38
2019-05-02T00:49:12.341Z,13.05
2019-05-02T00:50:18.984Z,14.25
2019-05-02T00:51:26.720Z,14.73
2019-05-02T00:52:32.910Z,15.80
2019-05-02T00:53:38.232Z,16.05
2019-05-02T00:54:42.991Z,15.15
2019-05-02T00:55:47.091Z,14.30
2019-05-02T00:56:52.595Z,15.68
2019-05-02T00:57:57.754Z,15.18
2019-05-02T00:59:06.837Z,14.45
2019-05-02T01:00:13.346Z,14.07
2019-05-02T01:01:29.366Z,13.40
2019-05-02T01:02:48.531Z,13.90
2019-05-02T01:03:54.882Z,14.18
2019-05-02T01:05:02.876Z,14.75
2019-05-02T01:06:04.968Z,13.95
2019-05-02T01:07:09.120Z,15.38
2019-05-02T01:08:13.181Z,15.00
2019-05-02T01:09:18.970Z,15.10
2019-05-02T01:10:23.136Z,15.13
2019-05-02T01:11:28.261Z,14.70
2019-05-02T01:12:32.941Z,15.98
2019-05-02T01:13:37.087Z,15.88
2019-05-02T01:14:43.317Z,15.00
2019-05-02T01:15:47.395Z,14.13
2019-05-02T01:16:56.143Z,15.65
2019-05-02T01:18:01.183Z,15.40
2019-05-02T01:19:06.297Z,15.70
2019-05-02T01:20:10.719Z,14.35
2019-05-02T01:21:14.817Z,15.00
2019-05-02T01:22:19.047Z,13.50
2019-05-02T01:23:27.582Z,14.15
2019-05-02T01:24:29.034Z,14.03
2019-05-02T01:25:33.210Z,13.78
2019-05-02T01:26:39.175Z,14.33
2019-05-02T01:27:47.325Z,12.13
2019-05-02T01:28:56.215Z,13.40
2019-05-02T01:30:06.022Z,13.90
2019-05-02T01:31:18.288Z,14.10
2019-05-02T01:32:30.015Z,14.47
2019-05-02T01:33:51.813Z,15.30
2019-05-02T01:35:06.442Z,14.63
2019-05-02T01:36:18.189Z,14.47
2019-05-02T01:37:30.184Z,14.40
2019-05-02T01:38:48.221Z,14.20
2019-05-02T01:39:52.325Z,14.80
2019-05-02T01:40:56.416Z,13.43
2019-05-02T01:42:04.198Z,14.80
2019-05-02T01:43:24.081Z,14.90
2019-05-02T01:44:26.059Z,15.63
2019-05-02T01:45:30.189Z,14.33
2019-05-02T01:46:35.665Z,15.00
2019-05-02T01:47:39.745Z,14.68
2019-05-02T01:48:45.623Z,14.25
2019-05-02T01:49:52.089Z,15.32
2019-05-02T01:50:56.005Z,16.07
2019-05-02T01:52:01.898Z,14.50
2019-05-02T01:53:05.992Z,17.30
2019-05-02T01:54:11.440Z,16.77
2019-05-02T01:55:17.040Z,18.45
2019-05-02T01:56:21.332Z,17.85
2019-05-02T01:57:25.416Z,17.90
2019-05-02T01:58:29.574Z,17.30
2019-05-02T01:59:35.037Z,18.75
2019-05-02T02:00:40.928Z,18.57
2019-05-02T02:01:46.729Z,19.15
2019-05-02T02:02:50.819Z,20.35
2019-05-02T02:03:56.484Z,20.27
2019-05-02T02:05:00.626Z,20.32
2019-05-02T02:06:08.241Z,21.27
2019-05-02T02:07:14.975Z,19.95
2019-05-02T02:08:17.885Z,21.35
2019-05-02T02:09:21.965Z,21.85
2019-05-02T02:10:26.081Z,20.35
2019-05-02T02:11:33.808Z,20.70
2019-05-02T02:12:36.071Z,20.62
2019-05-02T02:13:41.909Z,21.30
2019-05-02T02:14:48.059Z,21.17
2019-05-02T02:15:53.216Z,22.27
2019-05-02T02:16:57.296Z,20.80
2019-05-02T02:18:01.511Z,20.17
2019-05-02T02:19:15.994Z,20.60
2019-05-02T02:20:37.444Z,20.50
2019-05-02T02:21:43.245Z,20.62
2019-05-02T02:22:51.917Z,21.10
2019-05-02T02:23:57.628Z,22.10
2019-05-02T02:25:09.217Z,21.73
2019-05-02T02:26:16.508Z,22.17
2019-05-02T02:27:24.614Z,20.15
2019-05-02T02:28:26.276Z,21.00
2019-05-02T02:29:30.360Z,21.10
2019-05-02T02:30:35.653Z,19.02
2019-05-02T02:31:46.854Z,22.20
2019-05-02T02:32:46.287Z,21.75
2019-05-02T02:33:50.480Z,20.95
2019-05-02T02:34:56.162Z,21.68
2019-05-02T02:36:00.238Z,20.88
2019-05-02T02:37:12.245Z,20.70
2019-05-02T02:38:10.134Z,22.20
2019-05-02T02:39:17.072Z,22.90
2019-05-02T02:40:21.410Z,22.42
2019-05-02T02:41:25.575Z,22.37
2019-05-02T02:42:31.650Z,23.55
2019-05-02T02:43:35.484Z,22.00
2019-05-02T02:44:41.969Z,24.98
2019-05-02T02:46:01.688Z,22.80
2019-05-02T02:47:11.951Z,21.85
2019-05-02T02:48:13.360Z,22.87
2019-05-02T02:49:21.691Z,22.52
2019-05-02T02:50:23.171Z,24.20
2019-05-02T02:51:28.608Z,24.15
2019-05-02T02:52:37.890Z,23.30
2019-05-02T02:53:40.116Z,24.45
2019-05-02T02:54:44.974Z,23.05
2019-05-02T02:55:49.243Z,23.15
2019-05-02T02:56:53.925Z,22.02
2019-05-02T02:57:58.604Z,21.77
2019-05-02T02:59:03.779Z,22.82
2019-05-02T03:00:11.043Z,23.20
2019-05-02T03:01:14.006Z,22.40
2019-05-02T03:02:19.493Z,21.77
2019-05-02T03:03:27.763Z,23.98
2019-05-02T03:04:29.354Z,24.23
2019-05-02T03:05:34.584Z,23.12
2019-05-02T03:06:44.595Z,21.93
2019-05-02T03:07:44.590Z,24.27
2019-05-02T03:08:49.321Z,22.45
2019-05-02T03:09:59.543Z,23.20
2019-05-02T03:11:01.241Z,24.25
2019-05-02T03:12:18.878Z,23.00
2019-05-02T03:13:25.893Z,24.80
2019-05-02T03:14:31.703Z,24.07
2019-05-02T03:15:37.486Z,25.48
2019-05-02T03:16:46.901Z,23.85
2019-05-02T03:17:49.721Z,23.42
2019-05-02T03:18:53.924Z,22.75
2019-05-02T03:20:01.512Z,24.65
2019-05-02T03:21:03.778Z,25.90
2019-05-02T03:22:07.912Z,26.95
2019-05-02T03:23:15.300Z,25.68
2019-05-02T03:24:18.185Z,23.87
2019-05-02T03:25:25.097Z,26.45
2019-05-02T03:26:30.264Z,25.77
2019-05-02T03:27:37.178Z,25.23
2019-05-02T03:28:40.751Z,23.90
2019-05-02T03:29:44.888Z,25.30
2019-05-02T03:30:50.574Z,28.52
2019-05-02T03:32:12.296Z,26.15
2019-05-02T03:33:09.579Z,28.92
2019-05-02T03:34:06.368Z,30.55
2019-05-02T03:35:17.608Z,27.15
2019-05-02T03:36:28.712Z,26.27
2019-05-02T03:37:22.545Z,28.90
2019-05-02T03:38:32.397Z,30.15
2019-05-02T03:39:32.422Z,26.37
2019-05-02T03:40:39.170Z,30.45
2019-05-02T03:41:43.160Z,30.48
2019-05-02T03:42:47.809Z,28.47
2019-05-02T03:44:09.089Z,31.05
2019-05-02T03:45:04.078Z,31.07
2019-05-02T03:46:03.838Z,29.10
2019-05-02T03:47:08.164Z,26.57
2019-05-02T03:48:18.481Z,30.30
2019-05-02T03:49:19.734Z,28.60
2019-05-02T03:50:32.437Z,27.45
2019-05-02T03:51:32.196Z,24.80
2019-05-02T03:52:42.457Z,28.75
2019-05-02T03:53:42.333Z,25.75
2019-05-02T03:54:50.142Z,27.35
2019-05-02T03:55:52.775Z,24.85
2019-05-02T03:56:56.865Z,28.40
2019-05-02T03:58:13.483Z,26.70
2019-05-02T03:59:06.858Z,26.10
2019-05-02T04:00:13.895Z,28.27
2019-05-02T04:01:16.856Z,26.05
2019-05-02T04:02:21.850Z,24.52
2019-05-02T04:03:26.141Z,27.02
2019-05-02T04:04:30.449Z,25.43
2019-05-02T04:05:40.448Z,25.20
2019-05-02T04:06:40.386Z,23.98
2019-05-02T04:07:44.541Z,29.18
2019-05-02T04:08:58.700Z,25.70
2019-05-02T04:09:55.304Z,24.15
2019-05-02T04:11:11.592Z,21.85
2019-05-02T04:12:19.390Z,23.10
2019-05-02T04:13:22.158Z,24.25
2019-05-02T04:14:37.575Z,24.85
2019-05-02T04:15:35.153Z,24.18
2019-05-02T04:16:38.769Z,20.68
2019-05-02T04:17:43.122Z,22.20
2019-05-02T04:18:54.615Z,20.80
2019-05-02T04:19:54.000Z,21.17
2019-05-02T04:20:59.135Z,25.08
2019-05-02T04:22:08.701Z,22.00
2019-05-02T04:23:10.286Z,22.77
2019-05-02T04:24:16.034Z,21.93
2019-05-02T04:25:20.401Z,23.87
2019-05-02T04:26:24.768Z,20.68
2019-05-02T04:27:34.188Z,23.52
2019-05-02T04:28:35.580Z,22.32
2019-05-02T04:29:39.797Z,22.80
2019-05-02T04:30:45.154Z,22.00
2019-05-02T04:31:49.685Z,21.55
2019-05-02T04:32:56.003Z,19.55
2019-05-02T04:33:59.646Z,20.77
2019-05-02T04:35:04.564Z,19.42
2019-05-02T04:36:15.432Z,21.20
2019-05-02T04:37:14.389Z,20.23
2019-05-02T04:38:21.409Z,22.40
2019-05-02T04:39:24.181Z,22.67
2019-05-02T04:40:28.439Z,21.20
2019-05-02T04:41:34.369Z,22.30
2019-05-02T04:42:39.292Z,20.88
2019-05-02T04:43:54.368Z,19.27
2019-05-02T04:45:11.626Z,21.70
2019-05-02T04:46:00.022Z,20.90
2019-05-02T04:47:13.916Z,20.80
2019-05-02T04:48:08.525Z,18.92
2019-05-02T04:49:22.198Z,21.55
2019-05-02T04:50:25.240Z,20.97
2019-05-02T04:51:28.687Z,19.85
2019-05-02T04:52:37.639Z,20.40
2019-05-02T04:53:44.416Z,18.87
2019-05-02T04:54:44.660Z,20.80
2019-05-02T04:56:00.551Z,19.87
2019-05-02T04:56:55.544Z,19.60
2019-05-02T04:58:01.738Z,17.87
2019-05-02T04:59:16.550Z,20.25
2019-05-02T05:00:12.373Z,18.17
2019-05-02T05:01:16.496Z,18.90
2019-05-02T05:02:34.621Z,20.82
2019-05-02T05:03:28.501Z,20.08
2019-05-02T05:04:41.893Z,17.60
2019-05-02T05:05:40.359Z,19.87
2019-05-02T05:06:54.895Z,18.02
2019-05-02T05:07:50.997Z,18.00
2019-05-02T05:08:58.479Z,17.87
2019-05-02T05:10:03.434Z,16.93
2019-05-02T05:11:07.912Z,16.52
2019-05-02T05:12:11.990Z,16.35
2019-05-02T05:13:19.416Z,19.55
2019-05-02T05:14:21.772Z,18.52
2019-05-02T05:15:37.288Z,15.53
2019-05-02T05:16:32.196Z,16.52
2019-05-02T05:17:37.538Z,16.93
2019-05-02T05:18:43.905Z,19.57
2019-05-02T05:19:48.862Z,17.90
2019-05-02T05:20:54.255Z,18.87
2019-05-02T05:22:04.406Z,17.17
2019-05-02T05:23:08.105Z,18.00
2019-05-02T05:24:13.252Z,16.75
2019-05-02T05:25:21.344Z,18.98
2019-05-02T05:26:27.633Z,18.57
2019-05-02T05:27:33.404Z,19.55
2019-05-02T05:28:40.585Z,18.77
2019-05-02T05:29:46.060Z,18.77
2019-05-02T05:30:55.789Z,17.55
2019-05-02T05:32:05.528Z,18.52
2019-05-02T05:33:09.935Z,19.90
2019-05-02T05:34:12.148Z,20.35
2019-05-02T05:35:17.727Z,18.55
2019-05-02T05:36:29.277Z,18.52
2019-05-02T05:37:29.584Z,21.55
2019-05-02T05:38:36.012Z,17.48
2019-05-02T05:39:43.079Z,20.05
2019-05-02T05:40:47.871Z,17.92
2019-05-02T05:41:52.390Z,18.52
2019-05-02T05:42:57.404Z,20.43
2019-05-02T05:44:01.479Z,18.65
2019-05-02T05:45:13.827Z,16.90
2019-05-02T05:46:17.916Z,19.50
2019-05-02T05:47:23.913Z,18.15
2019-05-02T05:48:32.043Z,19.27
2019-05-02T05:49:37.430Z,17.02
2019-05-02T05:50:41.435Z,19.27
2019-05-02T05:51:49.502Z,18.70
2019-05-02T05:52:55.060Z,18.55
2019-05-02T05:54:03.192Z,16.62
2019-05-02T05:55:12.841Z,19.02
2019-05-02T05:56:15.506Z,16.62
2019-05-02T05:57:21.205Z,15.63
2019-05-02T05:58:25.473Z,16.27
2019-05-02T05:59:32.388Z,16.60
2019-05-02T06:00:38.063Z,15.90
2019-05-02T06:01:42.614Z,15.45
2019-05-02T06:02:53.777Z,15.75
2019-05-02T06:03:52.380Z,16.70
2019-05-02T06:05:03.610Z,17.10
2019-05-02T06:06:05.408Z,16.65
2019-05-02T06:07:09.557Z,16.75
2019-05-02T06:08:13.942Z,15.85
2019-05-02T06:09:26.218Z,15.58
2019-05-02T06:10:34.229Z,16.30
2019-05-02T06:11:38.905Z,16.57
2019-05-02T06:12:43.047Z,16.15
2019-05-02T06:13:50.694Z,14.85
2019-05-02T06:14:56.429Z,15.88
2019-05-02T06:16:02.571Z,15.40
2019-05-02T06:17:06.105Z,16.45
2019-05-02T06:18:10.245Z,15.15
2019-05-02T06:19:17.921Z,16.52
2019-05-02T06:20:20.245Z,16.45
2019-05-02T06:21:24.367Z,17.30
2019-05-02T06:22:28.501Z,15.10
2019-05-02T06:23:36.439Z,17.48
2019-05-02T06:24:39.337Z,14.68
2019-05-02T06:25:44.749Z,16.97
2019-05-02T06:26:49.741Z,17.82
2019-05-02T06:27:54.591Z,17.12
2019-05-02T06:28:58.666Z,15.88
2019-05-02T06:30:03.592Z,16.32
2019-05-02T06:31:08.706Z,15.32
2019-05-02T06:32:14.142Z,16.02
2019-05-02T06:33:18.665Z,14.55
2019-05-02T06:34:22.756Z,14.28
2019-05-02T06:35:27.174Z,15.78
2019-05-02T06:36:36.519Z,15.55
2019-05-02T06:37:40.446Z,15.25
2019-05-02T06:38:43.437Z,14.55
2019-05-02T06:39:47.590Z,15.78
2019-05-02T06:40:52.309Z,13.55
2019-05-02T06:41:57.410Z,15.78
2019-05-02T06:43:09.596Z,13.95
2019-05-02T06:44:18.489Z,14.40
2019-05-02T06:45:19.747Z,14.13
2019-05-02T06:46:27.845Z,14.43
2019-05-02T06:47:29.509Z,12.78
2019-05-02T06:48:35.135Z,15.72
2019-05-02T06:49:43.003Z,14.47
2019-05-02T06:50:47.175Z,12.78
2019-05-02T06:51:56.213Z,13.03
2019-05-02T06:52:57.126Z,12.23
2019-05-02T06:54:01.202Z,11.75
2019-05-02T06:55:09.837Z,12.07
2019-05-02T06:56:14.110Z,11.80
2019-05-02T06:57:19.170Z,11.90
2019-05-02T06:58:24.075Z,12.03
2019-05-02T06:59:31.225Z,11.80
2019-05-02T07:00:49.807Z,12.65
2019-05-02T07:01:41.160Z,11.28
2019-05-02T07:02:45.245Z,11.08
2019-05-02T07:03:49.382Z,11.90
2019-05-02T07:04:54.765Z,10.72
2019-05-02T07:06:02.872Z,10.38
2019-05-02T07:07:05.021Z,10.13
2019-05-02T07:08:11.823Z,10.30
2019-05-02T07:09:15.024Z,10.28
2019-05-02T07:10:25.520Z,11.00
2019-05-02T07:11:27.587Z,11.12
2019-05-02T07:12:31.714Z,10.25
2019-05-02T07:13:36.307Z,10.40
2019-05-02T07:14:41.647Z,9.90
2019-05-02T07:15:57.586Z,8.93
2019-05-02T07:17:05.671Z,10.63
2019-05-02T07:18:12.266Z,10.32
2019-05-02T07:19:30.050Z,9.13
2019-05-02T07:20:35.241Z,9.43
2019-05-02T07:21:39.837Z,9.45
2019-05-02T07:22:45.847Z,9.45
2019-05-02T07:23:53.639Z,9.58
2019-05-02T07:25:06.724Z,9.65
2019-05-02T07:26:06.975Z,10.28
2019-05-02T07:27:11.147Z,10.08
2019-05-02T07:28:15.303Z,9.48
2019-05-02T07:29:21.809Z,8.63
2019-05-02T07:30:30.079Z,9.98
2019-05-02T07:31:32.492Z,10.13
2019-05-02T07:32:38.359Z,9.43
2019-05-02T07:33:42.549Z,8.88
2019-05-02T07:34:48.165Z,10.43
2019-05-02T07:35:55.320Z,9.65
2019-05-02T07:36:59.909Z,8.95
2019-05-02T07:38:04.103Z,9.25
2019-05-02T07:39:10.323Z,9.45
2019-05-02T07:40:16.852Z,8.83
2019-05-02T07:41:24.093Z,9.15
2019-05-02T07:42:29.390Z,8.40
2019-05-02T07:43:37.669Z,9.75
2019-05-02T07:44:44.973Z,8.50
2019-05-02T07:45:52.027Z,9.20
2019-05-02T07:46:57.027Z,9.18
2019-05-02T07:48:01.932Z,9.58
2019-05-02T07:49:06.362Z,9.08
2019-05-02T07:50:11.809Z,8.60
2019-05-02T07:51:17.284Z,9.28
2019-05-02T07:52:23.503Z,8.95
2019-05-02T07:53:28.853Z,9.50
2019-05-02T07:54:34.626Z,8.43
2019-05-02T07:55:40.834Z,9.00
2019-05-02T07:56:48.554Z,9.25
2019-05-02T07:57:51.645Z,9.65
2019-05-02T07:58:55.852Z,9.38
2019-05-02T08:00:02.677Z,9.78
2019-05-02T08:01:13.503Z,8.93
2019-05-02T08:02:20.193Z,10.30
2019-05-02T08:03:21.543Z,9.38
2019-05-02T08:04:25.657Z,10.20
2019-05-02T08:05:29.712Z,10.00
2019-05-02T08:06:35.508Z,10.15
2019-05-02T08:07:40.687Z,10.08
2019-05-02T08:08:44.758Z,9.30
2019-05-02T08:09:48.846Z,8.83
2019-05-02T08:10:53.375Z,9.75
2019-05-02T08:11:58.883Z,9.10
2019-05-02T08:13:03.003Z,9.08
2019-05-02T08:14:07.141Z,7.85
2019-05-02T08:15:13.157Z,8.50
2019-05-02T08:16:17.317Z,9.43
2019-05-02T08:17:21.405Z,8.88
2019-05-02T08:18:30.377Z,8.00
2019-05-02T08:19:31.425Z,9.10
2019-05-02T08:20:36.126Z,9.03
2019-05-02T08:21:41.735Z,8.60
2019-05-02T08:22:48.895Z,9.38
2019-05-02T08:23:51.565Z,8.10
2019-05-02T08:24:55.635Z,9.30
2019-05-02T08:25:59.691Z,9.35
2019-05-02T08:27:05.580Z,8.95
2019-05-02T08:28:16.033Z,9.40
2019-05-02T08:29:16.993Z,9.15
2019-05-02T08:30:22.861Z,8.40
2019-05-02T08:31:29.890Z,9.13
2019-05-02T08:32:35.261Z,8.08
2019-05-02T08:33:39.436Z,8.58
2019-05-02T08:34:46.259Z,9.08
2019-05-02T08:35:49.519Z,9.58
2019-05-02T08:36:53.591Z,7.80
2019-05-02T08:37:57.733Z,8.60
2019-05-02T08:39:01.801Z,9.03
2019-05-02T08:40:11.039Z,9.33
2019-05-02T08:41:20.050Z,9.60
2019-05-02T08:42:21.938Z,8.33
2019-05-02T08:43:26.013Z,9.35
2019-05-02T08:44:30.069Z,8.73
2019-05-02T08:45:38.302Z,9.05
2019-05-02T08:46:39.874Z,9.48
2019-05-02T08:47:44.009Z,8.95
2019-05-02T08:48:50.564Z,9.75
2019-05-02T08:49:54.913Z,8.78
2019-05-02T08:51:00.175Z,10.30
2019-05-02T08:52:04.540Z,9.65
2019-05-02T08:53:08.727Z,10.68
2019-05-02T08:54:13.445Z,8.58
2019-05-02T08:55:17.561Z,9.15
2019-05-02T08:56:22.918Z,10.65
2019-05-02T08:57:29.961Z,10.65
2019-05-02T08:58:32.801Z,9.68
2019-05-02T08:59:36.853Z,9.98
2019-05-02T09:00:41.068Z,9.60
2019-05-02T09:01:49.393Z,10.23
2019-05-02T09:02:50.888Z,9.45
2019-05-02T09:03:56.939Z,10.40
2019-05-02T09:05:04.676Z,11.85
2019-05-02T09:06:06.622Z,11.15
2019-05-02T09:07:10.888Z,12.28
2019-05-02T09:08:16.700Z,12.07
2019-05-02T09:09:22.832Z,11.10
2019-05-02T09:10:29.507Z,12.45
2019-05-02T09:11:34.699Z,11.08
2019-05-02T09:12:42.078Z,10.65
2019-05-02T09:13:46.104Z,10.18
2019-05-02T09:14:52.088Z,10.65
2019-05-02T09:15:57.848Z,10.98
2019-05-02T09:17:08.073Z,10.85
2019-05-02T09:18:09.256Z,10.15
2019-05-02T09:19:21.107Z,11.63
2019-05-02T09:20:20.877Z,10.93
2019-05-02T09:21:26.732Z,11.53
2019-05-02T09:22:32.714Z,10.72
2019-05-02T09:23:37.205Z,11.08
2019-05-02T09:24:44.988Z,10.05
2019-05-02T09:25:51.981Z,11.85
2019-05-02T09:26:56.841Z,10.80
2019-05-02T09:28:03.336Z,10.88
2019-05-02T09:29:07.512Z,10.98
2019-05-02T09:30:17.195Z,10.60
2019-05-02T09:31:23.405Z,10.18
2019-05-02T09:32:32.277Z,10.80
2019-05-02T09:33:45.224Z,10.72
2019-05-02T09:34:47.557Z,9.88
2019-05-02T09:35:57.472Z,10.93
2019-05-02T09:37:12.116Z,10.68
2019-05-02T09:38:17.733Z,10.48
2019-05-02T09:39:34.750Z,10.95
2019-05-02T09:40:35.307Z,10.28
2019-05-02T09:41:41.939Z,10.90
2019-05-02T09:42:47.528Z,11.03
2019-05-02T09:43:52.397Z,10.08
2019-05-02T09:44:57.535Z,10.50
2019-05-02T09:46:07.428Z,10.95
2019-05-02T09:47:12.477Z,10.45
2019-05-02T09:48:21.915Z,10.50
2019-05-02T09:49:32.375Z,11.40
2019-05-02T09:50:38.070Z,12.40
2019-05-02T09:51:42.028Z,11.43
2019-05-02T09:52:46.954Z,11.40
2019-05-02T09:53:57.040Z,11.35
2019-05-02T09:54:58.488Z,11.53
2019-05-02T09:56:04.326Z,13.25
2019-05-02T09:57:12.011Z,12.70
2019-05-02T09:58:21.081Z,11.30
2019-05-02T09:59:30.123Z,13.03
2019-05-02T10:00:42.008Z,11.35
2019-05-02T10:01:49.066Z,11.65
2019-05-02T10:02:53.200Z,12.05
2019-05-02T10:03:57.349Z,11.40
2019-05-02T10:05:07.155Z,12.58
2019-05-02T10:06:17.894Z,11.48
2019-05-02T10:07:18.186Z,11.65
2019-05-02T10:08:24.964Z,12.82
2019-05-02T10:09:32.276Z,11.53
2019-05-02T10:10:37.233Z,12.30
2019-05-02T10:11:43.849Z,12.05
2019-05-02T10:12:48.136Z,12.35
2019-05-02T10:13:55.406Z,12.00
2019-05-02T10:14:59.619Z,11.97
2019-05-02T10:16:03.864Z,11.75
2019-05-02T10:17:08.131Z,12.00
2019-05-02T10:18:14.686Z,11.93
2019-05-02T10:19:19.064Z,11.65
2019-05-02T10:20:36.164Z,11.78
2019-05-02T10:21:46.944Z,11.93
2019-05-02T10:22:54.574Z,11.20
2019-05-02T10:24:08.029Z,10.90
2019-05-02T10:25:13.365Z,12.25
2019-05-02T10:26:19.983Z,12.25
2019-05-02T10:27:24.155Z,10.25
2019-05-02T10:28:28.302Z,11.30
2019-05-02T10:29:33.060Z,11.03
2019-05-02T10:30:42.459Z,11.80
2019-05-02T10:31:47.661Z,10.95
2019-05-02T10:32:56.148Z,12.43
2019-05-02T10:33:58.834Z,10.80
2019-05-02T10:35:03.401Z,11.45
2019-05-02T10:36:13.743Z,11.88
2019-05-02T10:37:13.468Z,12.00
2019-05-02T10:38:19.455Z,10.50
2019-05-02T10:39:28.534Z,11.45
2019-05-02T10:41:39.594Z,11.20
2019-05-02T10:42:42.964Z,10.63
2019-05-02T10:43:53.943Z,11.33
2019-05-02T10:44:52.933Z,11.28
2019-05-02T10:46:04.981Z,10.40
2019-05-02T10:47:10.290Z,11.03
2019-05-02T10:48:25.803Z,10.65
2019-05-02T10:49:25.752Z,9.68
2019-05-02T10:50:32.889Z,11.33
2019-05-02T10:51:41.952Z,11.10
2019-05-02T10:52:43.028Z,10.58
2019-05-02T10:53:51.953Z,9.83
2019-05-02T10:54:55.682Z,10.90
2019-05-02T10:55:59.763Z,11.15
2019-05-02T10:57:08.318Z,10.35
2019-05-02T10:58:12.409Z,10.45
2019-05-02T10:59:16.668Z,10.05
2019-05-02T11:00:23.952Z,11.12
2019-05-02T11:01:32.326Z,10.40
2019-05-02T11:02:53.462Z,11.33
2019-05-02T11:03:59.236Z,10.88
2019-05-02T11:05:16.947Z,10.68
2019-05-02T11:06:22.797Z,9.58
2019-05-02T11:07:28.566Z,9.78
2019-05-02T11:08:36.736Z,10.30
2019-05-02T11:09:38.672Z,11.15
2019-05-02T11:10:44.351Z,10.25
2019-05-02T11:11:48.468Z,10.63
2019-05-02T11:12:56.129Z,9.50
2019-05-02T11:14:12.026Z,10.38
2019-05-02T11:15:35.870Z,10.20
2019-05-02T11:17:01.736Z,10.30
2019-05-02T11:18:07.936Z,9.50
2019-05-02T11:19:16.856Z,9.30
2019-05-02T11:20:22.468Z,10.45
2019-05-02T11:21:26.706Z,11.40
2019-05-02T11:22:32.144Z,10.80
2019-05-02T11:23:36.412Z,9.45
2019-05-02T11:24:41.796Z,10.95
2019-05-02T11:25:46.163Z,10.78
2019-05-02T11:26:52.851Z,10.45
2019-05-02T11:28:02.825Z,9.85
2019-05-02T11:29:05.411Z,11.20
2019-05-02T11:30:12.224Z,9.90
2019-05-02T11:31:17.112Z,9.88
2019-05-02T11:32:22.097Z,10.58
2019-05-02T11:33:26.406Z,10.15
2019-05-02T11:34:32.499Z,9.13
2019-05-02T11:35:41.651Z,9.95
2019-05-02T11:36:46.386Z,9.53
2019-05-02T11:37:51.983Z,9.58
2019-05-02T11:39:05.392Z,9.78
2019-05-02T11:40:07.768Z,10.25
2019-05-02T11:41:12.552Z,10.28
2019-05-02T11:42:23.251Z,9.65
2019-05-02T11:43:25.652Z,10.58
2019-05-02T11:44:29.727Z,10.48
2019-05-02T11:45:35.065Z,10.60
2019-05-02T11:46:42.959Z,9.80
2019-05-02T11:47:44.954Z,11.08
2019-05-02T11:48:56.334Z,10.63
2019-05-02T11:49:56.578Z,10.23
2019-05-02T11:51:02.616Z,11.08
2019-05-02T11:52:08.086Z,10.75
2019-05-02T11:53:23.309Z,10.48
2019-05-02T11:54:18.135Z,10.05
2019-05-02T11:55:24.711Z,11.03
2019-05-02T11:56:27.971Z,10.05
2019-05-02T11:57:33.163Z,11.03
2019-05-02T11:58:41.003Z,11.18
2019-05-02T11:59:44.503Z,9.98
2019-05-02T12:00:49.794Z,9.93
2019-05-02T12:02:02.702Z,10.70
2019-05-02T12:03:14.462Z,10.75
2019-05-02T12:04:18.699Z,9.55
2019-05-02T12:05:26.584Z,10.28
2019-05-02T12:06:33.560Z,11.05
2019-05-02T12:07:37.724Z,9.95
2019-05-02T12:08:45.055Z,9.88
2019-05-02T12:09:55.171Z,11.08
2019-05-02T12:10:53.519Z,10.48
2019-05-02T12:11:59.702Z,10.72
2019-05-02T12:13:06.620Z,10.80
2019-05-02T12:14:09.727Z,10.85
2019-05-02T12:15:16.094Z,10.40
2019-05-02T12:16:22.855Z,9.30
2019-05-02T12:17:28.034Z,9.85
2019-05-02T12:18:32.607Z,10.40
2019-05-02T12:19:36.782Z,9.23
2019-05-02T12:20:42.556Z,10.10
2019-05-02T12:21:57.121Z,10.10
2019-05-02T12:23:03.830Z,9.85
2019-05-02T12:24:09.126Z,9.85
2019-05-02T12:25:13.652Z,9.50
2019-05-02T12:26:22.066Z,10.38
2019-05-02T12:27:26.445Z,10.03
2019-05-02T12:28:32.378Z,9.90
2019-05-02T12:29:36.319Z,10.80
2019-05-02T12:30:41.884Z,10.55
2019-05-02T12:31:54.765Z,10.82
2019-05-02T12:32:55.003Z,10.58
2019-05-02T12:34:02.512Z,10.85
2019-05-02T12:35:06.573Z,10.08
2019-05-02T12:36:11.982Z,10.13
2019-05-02T12:37:16.394Z,9.00
2019-05-02T12:38:22.907Z,9.90
2019-05-02T12:39:26.392Z,10.20
2019-05-02T12:40:33.460Z,10.63
2019-05-02T12:41:37.634Z,10.08
2019-05-02T12:42:42.143Z,11.38
2019-05-02T12:43:46.336Z,11.00
2019-05-02T12:44:57.707Z,10.20
2019-05-02T12:46:02.311Z,11.05
2019-05-02T12:47:08.005Z,11.15
2019-05-02T12:48:12.961Z,11.30
2019-05-02T12:49:26.981Z,11.35
2019-05-02T12:50:23.694Z,11.20
2019-05-02T12:51:27.913Z,11.12
2019-05-02T12:52:32.108Z,11.08
2019-05-02T12:53:36.194Z,10.68
2019-05-02T12:54:41.659Z,11.43
2019-05-02T12:55:46.012Z,11.15
2019-05-02T12:56:50.165Z,12.40
2019-05-02T12:57:54.217Z,11.45
2019-05-02T12:59:02.154Z,12.58
2019-05-02T13:00:10.232Z,13.28
2019-05-02T13:01:14.343Z,11.95
2019-05-02T13:02:28.967Z,12.10
2019-05-02T13:03:34.726Z,11.57
2019-05-02T13:04:38.825Z,11.22
2019-05-02T13:05:42.922Z,13.00
2019-05-02T13:06:47.035Z,12.90
2019-05-02T13:07:55.312Z,13.50
2019-05-02T13:08:56.991Z,13.22
2019-05-02T13:10:02.462Z,13.22
2019-05-02T13:11:17.960Z,13.48
2019-05-02T13:12:23.815Z,13.78
2019-05-02T13:13:27.890Z,12.73
2019-05-02T13:14:32.178Z,11.30
2019-05-02T13:15:36.537Z,11.65
2019-05-02T13:16:42.900Z,12.53
2019-05-02T13:17:48.845Z,11.35
2019-05-02T13:18:52.466Z,10.78
2019-05-02T13:20:00.764Z,10.50
2019-05-02T13:21:07.998Z,10.45
2019-05-02T13:22:16.940Z,10.50
2019-05-02T13:23:27.310Z,9.60
2019-05-02T13:24:42.197Z,9.80
2019-05-02T13:25:47.137Z,9.65
2019-05-02T13:26:58.894Z,9.60
2019-05-02T13:27:57.105Z,9.98
2019-05-02T13:29:02.468Z,10.03
2019-05-02T13:30:12.443Z,9.15
2019-05-02T13:31:36.236Z,8.65
2019-05-02T13:32:43.410Z,8.58
2019-05-02T13:33:55.868Z,9.33
2019-05-02T13:35:17.551Z,9.78
2019-05-02T13:36:39.129Z,8.38
2019-05-02T13:37:43.971Z,9.35
2019-05-02T13:38:48.190Z,8.25
2019-05-02T13:39:54.079Z,8.63
2019-05-02T13:40:58.282Z,8.73
2019-05-02T13:42:02.588Z,9.20
2019-05-02T13:43:08.327Z,9.18
2019-05-02T13:44:14.585Z,10.00
2019-05-02T13:45:26.470Z,10.40
2019-05-02T13:46:32.221Z,9.63
2019-05-02T13:47:36.530Z,9.25
2019-05-02T13:48:42.882Z,9.30
2019-05-02T13:49:53.830Z,9.78
2019-05-02T13:50:53.022Z,9.73
2019-05-02T13:51:57.201Z,8.90
2019-05-02T13:53:02.634Z,10.60
2019-05-02T13:54:07.403Z,10.80
2019-05-02T13:55:14.755Z,10.80
2019-05-02T13:56:22.996Z,10.35
2019-05-02T13:57:27.206Z,10.08
2019-05-02T13:58:33.228Z,10.60
2019-05-02T13:59:37.500Z,10.45
2019-05-02T14:00:46.136Z,10.75
2019-05-02T14:01:52.542Z,10.58
2019-05-02T14:02:57.445Z,9.38
2019-05-02T14:04:03.640Z,10.38
2019-05-02T14:05:12.793Z,9.43
2019-05-02T14:06:21.998Z,10.50
2019-05-02T14:07:24.708Z,11.45
2019-05-02T14:08:36.842Z,9.70
2019-05-02T14:09:40.560Z,12.15
2019-05-02T14:10:46.317Z,12.00
2019-05-02T14:12:11.845Z,13.25
2019-05-02T14:13:16.033Z,12.68
2019-05-02T14:14:20.198Z,11.93
2019-05-02T14:15:26.098Z,11.78
2019-05-02T14:16:32.133Z,12.63
2019-05-02T14:17:36.350Z,12.18
2019-05-02T14:18:42.098Z,12.13
2019-05-02T14:19:46.377Z,11.75